Sigfox identifier Datetime Temperature Humidity SNR
0038B4F1 2018-10-09 08:28:02 20.3 39 17.6
0038B4F1 2018-10-09 07:20:37 20.3 38 17.6
0038B4F1 2018-10-09 06:13:09 20.3 38 12.5
0038B4F1 2018-10-09 05:05:40 20.3 38 12.3
0038B4F1 2018-10-09 01:43:12 20.3 38 11.3
0038B4F1 2018-10-09 00:35:46 20.3 38 11.4
0038B4F1 2018-10-08 23:28:15 20.3 38 11.2
0038B4F1 2018-10-08 22:20:48 20.3 38 11.2
0038B4F1 2018-10-08 21:13:29 20.2 38 10.5
0038B4F1 2018-10-08 20:06:02 20.3 38 10
0038B4F1 2018-10-08 18:58:35 20.2 38 9.8
0038B4F1 2018-10-08 17:51:05 20.2 38 9.8
0038B4F1 2018-10-08 16:43:36 20.2 37 9.3
0038B4F1 2018-10-08 15:36:08 20.2 37 9.1
0038B4F1 2018-10-08 14:28:46 20 37 8.9
0038B4F1 2018-10-08 13:21:23 20.1 37 8.5
0038B4F1 2018-10-08 06:36:41 20.4 38 8.8
0038B4F1 2018-10-08 05:29:11 20.5 39 8.8
0038B4F1 2018-10-08 04:21:39 20.5 39 8.9
0038B4F1 2018-10-08 03:14:15 20.5 39 8.8
0038B4F1 2018-10-08 00:59:15 20.5 39 8.9
0038B4F1 2018-10-07 23:51:45 20.6 39 8.9
0038B4F1 2018-10-07 20:29:12 20.6 39 8.7
0038B4F1 2018-10-07 19:21:38 20.6 39 8.6
0038B4F1 2018-10-07 18:14:09 20.6 39 8.6
0038B4F1 2018-10-07 17:06:42 20.6 39 10.1
0038B4F1 2018-10-07 14:51:45 20.6 40 11.9
0038B4F1 2018-10-07 12:36:44 20.6 40 12.6
0038B4F1 2018-10-07 10:21:43 20.6 40 13
0038B4F1 2018-10-07 05:51:52 20.7 40 13.1
0038B4F1 2018-10-07 04:44:20 20.8 40 13.4
0038B4F1 2018-10-07 03:36:51 20.8 40 14
0038B4F1 2018-10-07 02:29:25 20.8 40 14.1
0038B4F1 2018-10-07 01:21:57 20.9 40 14.2
0038B4F1 2018-10-06 23:07:08 20.8 40 14.4
0038B4F1 2018-10-06 20:52:13 20.9 40 14.5
0038B4F1 2018-10-06 19:44:43 20.9 40 14.7
0038B4F1 2018-10-06 18:37:12 20.8 41 14.9
0038B4F1 2018-10-06 16:22:11 20.9 41 15
0038B4F1 2018-10-06 15:14:45 20.9 41 15.2
0038B4F1 2018-10-06 14:07:16 20.9 41 15.5
0038B4F1 2018-10-06 12:59:54 20.9 41 15.6
0038B4F1 2018-10-06 07:22:28 21 41 15.9
0038B4F1 2018-10-06 06:14:56 21 41 16.1
0038B4F1 2018-10-06 05:07:27 21.1 42 16.4
0038B4F1 2018-10-06 02:52:24 21.1 42 16.8
0038B4F1 2018-10-06 00:37:26 21.1 42 17.1
0038B4F1 2018-10-05 23:29:56 21.1 42 17.5
0038B4F1 2018-10-05 22:22:29 21 42 18
0038B4F1 2018-10-05 21:14:59 21.1 42 18.6
0038B4F1 2018-10-05 15:37:24 21.1 49 18.5
0038B4F1 2018-10-05 14:29:49 21 49 17.7
0038B4F1 2018-10-05 13:22:17 21 48 17.3
0038B4F1 2018-10-05 12:14:44 21 47 17.4
0038B4F1 2018-10-05 11:07:12 21.1 45 18.7
0038B4F1 2018-10-05 09:59:34 21.1 44 19.8
0038B4F1 2018-10-05 08:52:04 20.7 48 0